Terminal Aerodrome Forecast
Issued by NWS Pocatello, ID

Home | Current Version | Previous Version | Text Only | Print | Product List | Glossary On
Versions: 1 2 3 4 5 6 7 8 9 10 11 12 13
000
FTUS45 KPIH 261720
TAFBYI
TAF
KBYI 261720Z 2618/2718 27008KT P6SM SCT050
     FM262000 27010G20KT P6SM VCSH SCT040
     FM270000 29015G25KT P6SM SKC
     FM270300 29008KT P6SM SKC
     FM271200 20006KT P6SM FEW008 SCT035 SCT160=

USA.gov is the U.S. government's official web portal to all federal, state and local government web resources and services.